ID Time Temp Humidity Light PM2.5 PM10 Voltage Extra Firmware Position Fcnt TTN version Gateways Distance RSSI LSNR Radiosettings
2026-05-09 11:20:54 15.9375°C 71.0625% 3.31V v255 52.1073 / 5.14301 1249 ttn.v3 0.515km -116 -9.5 867.3MHz, SF9BW125, 4/5CR
2026-05-09 11:05:41 15.5°C 58.125% 3.3V v255 52.1073 / 5.14301 1248 ttn.v3 0.515km -106 -12.8 868.1MHz, SF12BW125, 4/5CR
2026-05-09 10:48:45 15.25°C 42.4375% 3.31V v255 52.1075 / 5.14291 1247 ttn.v3 1.53km -105 2.25 867.1MHz, SF9BW125, 4/5CR
0.493km -116 -9.8 867.1MHz, SF9BW125, 4/5CR
2026-05-09 10:32:38 14.9375°C 23.3125% 3.31V v255 52.1075 / 5.14291 1246 ttn.v3 1.53km -92 -12.5 868.5MHz, SF9BW125, 4/5CR
0.493km -103 -14.2 868.5MHz, SF9BW125, 4/5CR
2026-05-09 10:16:32 14.4375°C 9.5625% 3.31V v255 52.1075 / 5.14291 1245 ttn.v3 1.53km -105 6.25 867.9MHz, SF9BW125, 4/5CR
0.493km -115 -11.5 867.9MHz, SF9BW125, 4/5CR
2026-05-09 10:00:26 14.125°C 3.625% 3.31V v255 52.1075 / 5.14291 1244 ttn.v3 1.53km -93 -9.5 868.3MHz, SF9BW125, 4/5CR
0.493km -104 -11.5 868.3MHz, SF9BW125, 4/5CR
2026-05-09 09:44:20 13.8125°C 113.562% 3.31V v255 52.1075 / 5.14291 1243 ttn.v3 0.493km -116 -11.8 867.7MHz, SF9BW125, 4/5CR
2026-05-09 09:28:14 13.125°C 98.5% 3.31V v255 52.1075 / 5.14291 1242 ttn.v3 1.53km -109 -3.5 868.1MHz, SF9BW125, 4/5CR
0.493km -105 -9.2 868.1MHz, SF9BW125, 4/5CR
2026-05-09 09:12:08 12.6875°C 84.5% 3.31V v255 52.1075 / 5.14291 1241 ttn.v3 0.493km -116 -12 867.5MHz, SF9BW125, 4/5CR
2026-05-09 08:56:02 11.9375°C 73.875% 3.31V v255 52.1075 / 5.14291 1240 ttn.v3 0.493km -104 -11.2 868.5MHz, SF9BW125, 4/5CR
1.53km -91 -11.5 868.5MHz, SF9BW125, 4/5CR
2026-05-09 08:39:57 11.4375°C 66.125% 3.31V v255 52.1075 / 5.14291 1239 ttn.v3 0.493km -116 -9.5 867.3MHz, SF9BW125, 4/5CR
2026-05-09 08:23:52 11.3125°C 49.125% 3.31V v255 52.1075 / 5.14291 1238 ttn.v3 0.493km -105 -11.5 868.3MHz, SF9BW125, 4/5CR
2026-05-09 08:07:46 11.375°C 40.5625% 3.31V v255 52.1075 / 5.14291 1237 ttn.v3 1.53km -101 5.25 867.1MHz, SF9BW125, 4/5CR
- -121 -7 867.1MHz, SF9BW125, 4/5CR
0.493km -116 -9 867.1MHz, SF9BW125, 4/5CR
2026-05-09 07:51:42 8.8125°C 53.5625% 3.32V v255 52.1075 / 5.14291 1236 ttn.v3 1.53km -105 4 868.1MHz, SF9BW125, 4/5CR
0.493km -105 -12.8 868.1MHz, SF9BW125, 4/5CR
2026-05-09 07:35:37 7.6875°C 56.125% 3.32V v255 52.1075 / 5.14291 1235 ttn.v3 1.53km -107 3.75 867.9MHz, SF9BW125, 4/5CR
- -122 -9.75 867.9MHz, SF9BW125, 4/5CR
0.493km -115 -12.8 867.9MHz, SF9BW125, 4/5CR
2026-05-09 07:19:33 7.125°C 57.75% 3.32V v255 52.1075 / 5.14291 1234 ttn.v3 0.493km -105 -11.2 868.5MHz, SF9BW125, 4/5CR
2026-05-09 07:03:29 6.375°C 58.8125% 3.32V v255 52.1075 / 5.14291 1233 ttn.v3 1.53km -105 -2.5 867.7MHz, SF9BW125, 4/5CR
0.493km -116 -10.2 867.7MHz, SF9BW125, 4/5CR
2026-05-09 06:47:25 6.125°C 59.5625% 3.32V v255 52.1075 / 5.14291 1232 ttn.v3 0.493km -104 -11.8 868.3MHz, SF9BW125, 4/5CR
2026-05-09 06:31:21 5.625°C 59.75% 3.32V v255 52.1075 / 5.14291 1231 ttn.v3 0.493km -116 -10.8 867.5MHz, SF9BW125, 4/5CR
2026-05-09 06:15:17 5.5625°C 59.875% 3.32V v255 52.1075 / 5.14291 1230 ttn.v3 1.53km -103 -0.75 868.1MHz, SF9BW125, 4/5CR
0.493km -105 -12.8 868.1MHz, SF9BW125, 4/5CR
2026-05-09 05:59:14 5.5°C 60% 3.32V v255 52.1075 / 5.14291 1229 ttn.v3 0.493km -115 -9.8 867.3MHz, SF9BW125, 4/5CR
2026-05-09 05:43:10 5.5625°C 60.1875% 3.32V v255 52.1075 / 5.14291 1228 ttn.v3 0.493km -105 -9 868.5MHz, SF9BW125, 4/5CR
1.53km -91 -10.75 868.5MHz, SF9BW125, 4/5CR
- -118 -15.75 868.5MHz, SF9BW125, 4/5CR
2026-05-09 05:27:06 5.5625°C 60.125% 3.32V v255 52.1075 / 5.14291 1227 ttn.v3 1.53km -101 5.5 867.1MHz, SF9BW125, 4/5CR
- -117 -2.75 867.1MHz, SF9BW125, 4/5CR
0.493km -115 -10.5 867.1MHz, SF9BW125, 4/5CR
2026-05-09 05:11:02 5.5625°C 60.5% 3.32V v255 52.1075 / 5.14291 1226 ttn.v3 1.53km -92 -9.75 868.3MHz, SF9BW125, 4/5CR
0.493km -103 -13.8 868.3MHz, SF9BW125, 4/5CR
2026-05-09 04:54:58 5.75°C 60.8125% 3.32V v255 52.1075 / 5.14291 1225 ttn.v3 1.53km -103 -1.75 867.9MHz, SF9BW125, 4/5CR
0.493km -115 -13.5 867.9MHz, SF9BW125, 4/5CR
2026-05-09 04:38:55 5.875°C 61.3125% 3.32V v255 52.1075 / 5.14291 1224 ttn.v3 1.53km -95 -1 868.1MHz, SF9BW125, 4/5CR
0.493km -105 -11.2 868.1MHz, SF9BW125, 4/5CR
2026-05-09 04:22:51 6.125°C 62% 3.32V v255 52.1075 / 5.14291 1223 ttn.v3 0.493km -115 -11.2 867.7MHz, SF9BW125, 4/5CR
2026-05-09 04:06:47 6.1875°C 63% 3.32V v255 52.1075 / 5.14291 1222 ttn.v3 1.53km -92 -9.75 868.5MHz, SF9BW125, 4/5CR
0.493km -105 -10 868.5MHz, SF9BW125, 4/5CR
2026-05-09 03:50:43 6.375°C 64.3125% 3.32V v255 52.1075 / 5.14291 1221 ttn.v3 1.53km -92 -6.5 867.5MHz, SF9BW125, 4/5CR
0.493km -115 -10 867.5MHz, SF9BW125, 4/5CR
2026-05-09 03:34:39 6.5°C 65.25% 3.32V v255 52.1075 / 5.14291 1220 ttn.v3 0.493km -105 -11.5 868.3MHz, SF9BW125, 4/5CR
2026-05-09 03:18:35 6.6875°C 69.5625% 3.32V v255 52.1075 / 5.14291 1219 ttn.v3 0.493km -115 -11.2 867.3MHz, SF9BW125, 4/5CR
2026-05-09 03:02:31 6.8125°C 72.25% 3.32V v255 52.1075 / 5.14291 1218 ttn.v3 1.53km -103 -2.5 868.1MHz, SF9BW125, 4/5CR
0.493km -105 -13.2 868.1MHz, SF9BW125, 4/5CR
2026-05-09 02:46:26 7.0625°C 76.375% 3.32V v255 52.1075 / 5.14291 1217 ttn.v3 1.53km -99 6 867.1MHz, SF9BW125, 4/5CR
0.493km -116 -11.8 867.1MHz, SF9BW125, 4/5CR
- -116 -13.75 867.1MHz, SF9BW125, 4/5CR
2026-05-09 02:30:22 7.25°C 81.625% 3.32V v255 52.1075 / 5.14291 1216 ttn.v3 1.53km -93 -10.5 868.5MHz, SF9BW125, 4/5CR
0.493km -105 -10.8 868.5MHz, SF9BW125, 4/5CR
2026-05-09 02:14:18 7.3125°C 88.1875% 3.32V v255 52.1075 / 5.14291 1215 ttn.v3 1.53km -102 3.75 867.9MHz, SF9BW125, 4/5CR
0.493km -115 -12.5 867.9MHz, SF9BW125, 4/5CR
2026-05-09 01:58:14 7.5°C 92.0625% 3.32V v255 52.1075 / 5.14291 1214 ttn.v3 1.53km -95 -9.25 868.3MHz, SF9BW125, 4/5CR
0.493km -105 -10.2 868.3MHz, SF9BW125, 4/5CR
2026-05-09 01:42:09 7.625°C 97.9375% 3.32V v255 52.1075 / 5.14291 1213 ttn.v3 1.53km -107 -2 867.7MHz, SF9BW125, 4/5CR
0.493km -115 -10.2 867.7MHz, SF9BW125, 4/5CR
- -119 -10.25 867.7MHz, SF9BW125, 4/5CR
2026-05-09 01:26:05 7.6875°C 102.938% 3.32V v255 52.1075 / 5.14291 1212 ttn.v3 1.53km -104 -6 868.1MHz, SF9BW125, 4/5CR
0.493km -104 -11.8 868.1MHz, SF9BW125, 4/5CR
2026-05-09 01:10:01 7.875°C 103.062% 3.32V v255 52.1075 / 5.14291 1211 ttn.v3 0.493km -114 -12 867.5MHz, SF9BW125, 4/5CR
2026-05-09 00:53:56 8.0625°C 104.812% 3.32V v255 52.1075 / 5.14291 1210 ttn.v3 0.493km -105 -8.5 868.5MHz, SF9BW125, 4/5CR
1.53km -93 -11.5 868.5MHz, SF9BW125, 4/5CR
2026-05-09 00:37:52 8.25°C 111.5% 3.32V v255 52.1075 / 5.14291 1209 ttn.v3 1.53km -102 2 867.3MHz, SF9BW125, 4/5CR
0.493km -116 -8 867.3MHz, SF9BW125, 4/5CR
2026-05-09 00:21:47 8.5°C -0.75% 3.31V v255 52.1075 / 5.14291 1208 ttn.v3 1.53km -97 -7.25 868.3MHz, SF9BW125, 4/5CR
0.493km -104 -12 868.3MHz, SF9BW125, 4/5CR
2026-05-09 00:05:43 8.625°C 4.4375% 3.31V v255 52.1075 / 5.14291 1207 ttn.v3 0.493km -116 -9.5 867.1MHz, SF9BW125, 4/5CR
2026-05-08 23:49:38 8.875°C 16.4375% 3.31V v255 52.1075 / 5.14291 1206 ttn.v3 1.53km -99 1.5 868.1MHz, SF9BW125, 4/5CR
0.493km -105 -11.5 868.1MHz, SF9BW125, 4/5CR
2026-05-08 23:33:33 9.0625°C 51.4375% 3.31V v255 52.1075 / 5.14291 1205 ttn.v3 1.53km -103 -2 867.9MHz, SF9BW125, 4/5CR
0.493km -115 -11.5 867.9MHz, SF9BW125, 4/5CR
2026-05-08 23:17:29 9.1875°C 87.625% 3.32V v255 52.1075 / 5.14291 1204 ttn.v3 0.493km -105 -10.8 868.5MHz, SF9BW125, 4/5CR
1.53km -91 -11.5 868.5MHz, SF9BW125, 4/5CR
2026-05-08 23:01:24 9.4375°C 114.5% 3.31V v255 52.1075 / 5.14291 1203 ttn.v3 0.493km -115 -10.5 867.7MHz, SF9BW125, 4/5CR
2026-05-08 22:45:19 9.75°C 105.938% 3.31V v255 52.1075 / 5.14291 1202 ttn.v3 0.493km -104 -12.2 868.3MHz, SF9BW125, 4/5CR
1.53km -92 -12.25 868.3MHz, SF9BW125, 4/5CR
2026-05-08 22:29:14 10.125°C 103.5% 3.31V v255 52.1075 / 5.14291 1201 ttn.v3 0.493km -116 -10.2 867.5MHz, SF9BW125, 4/5CR
2026-05-08 22:13:09 10.4375°C 108% 3.31V v255 52.1075 / 5.14291 1200 ttn.v3 1.53km -99 -1 868.1MHz, SF9BW125, 4/5CR
0.493km -105 -11.5 868.1MHz, SF9BW125, 4/5CR
2026-05-08 21:57:04 10.875°C 118.5% 3.31V v255 52.1075 / 5.14291 1199 ttn.v3 1.53km -103 3.5 867.3MHz, SF9BW125, 4/5CR
0.493km -115 -9.2 867.3MHz, SF9BW125, 4/5CR
2026-05-08 21:40:58 11.4375°C 3.9375% 3.31V v255 52.1075 / 5.14291 1198 ttn.v3 1.53km -93 -8.5 868.5MHz, SF9BW125, 4/5CR
0.493km -105 -9.8 868.5MHz, SF9BW125, 4/5CR
2026-05-08 21:24:53 12°C 7% 3.31V v255 52.1075 / 5.14291 1197 ttn.v3 1.53km -105 5 867.1MHz, SF9BW125, 4/5CR
0.493km -113 -12.2 867.1MHz, SF9BW125, 4/5CR
2026-05-08 21:08:47 12.75°C 12% 3.31V v255 52.1075 / 5.14291 1196 ttn.v3 0.493km -106 -10.2 868.3MHz, SF9BW125, 4/5CR
1.53km -90 -10.5 868.3MHz, SF9BW125, 4/5CR
2026-05-08 20:52:41 13.6875°C 14.25% 3.31V v255 52.1075 / 5.14291 1195 ttn.v3 1.53km -103 3 867.9MHz, SF9BW125, 4/5CR
0.493km -115 -11.2 867.9MHz, SF9BW125, 4/5CR
2026-05-08 20:36:35 14.9375°C 15.25% 3.31V v255 52.1075 / 5.14291 1194 ttn.v3 1.53km -105 -2 868.1MHz, SF9BW125, 4/5CR
0.493km -106 -10.5 868.1MHz, SF9BW125, 4/5CR
2026-05-08 20:20:28 15.875°C 8.4375% 3.31V v255 52.1075 / 5.14291 1193 ttn.v3 1.53km -101 -3 867.7MHz, SF9BW125, 4/5CR
0.493km -116 -9.8 867.7MHz, SF9BW125, 4/5CR
2026-05-08 20:04:21 16.75°C 6.6875% 3.3V v255 52.1075 / 5.14291 1192 ttn.v3 0.493km -106 -9.8 868.5MHz, SF9BW125, 4/5CR
1.53km -95 -10 868.5MHz, SF9BW125, 4/5CR
2026-05-08 19:48:14 17.125°C 6.375% 3.3V v255 52.1075 / 5.14291 1191 ttn.v3 0.493km -116 -11.8 867.5MHz, SF9BW125, 4/5CR
2026-05-08 19:32:07 15.75°C 10% 3.31V v255 52.1075 / 5.14291 1190 ttn.v3 0.493km -104 -12.8 868.3MHz, SF9BW125, 4/5CR
2026-05-08 19:16:00 15.75°C 10% 3.31V v255 52.1075 / 5.14291 1189 ttn.v3 1.53km -98 2.75 867.3MHz, SF9BW125, 4/5CR
0.493km -116 -8.5 867.3MHz, SF9BW125, 4/5CR
2026-05-08 18:59:54 15.875°C 8.5% 3.3V v255 52.1075 / 5.14291 1188 ttn.v3 0.493km -105 -10.8 868.1MHz, SF9BW125, 4/5CR
2026-05-08 18:43:47 16.0625°C 6% 3.3V v255 52.1075 / 5.14291 1187 ttn.v3 1.53km -105 5.25 867.1MHz, SF9BW125, 4/5CR
0.493km -116 -9.2 867.1MHz, SF9BW125, 4/5CR
2026-05-08 18:27:40 16.1875°C 1.875% 3.3V v255 52.1075 / 5.14291 1186 ttn.v3 1.53km -90 -9.5 868.5MHz, SF9BW125, 4/5CR
0.493km -106 -9.8 868.5MHz, SF9BW125, 4/5CR
2026-05-08 18:11:33 16.25°C 3.3125% 3.3V v255 52.1075 / 5.14291 1185 ttn.v3 1.53km -104 3.75 867.9MHz, SF9BW125, 4/5CR
0.493km -115 -10.8 867.9MHz, SF9BW125, 4/5CR
2026-05-08 17:55:26 16.5625°C -4.625% 3.3V v255 52.1075 / 5.14291 1184 ttn.v3 0.493km -104 -10.5 868.3MHz, SF9BW125, 4/5CR
1.53km -91 -11.5 868.3MHz, SF9BW125, 4/5CR
2026-05-08 17:39:19 16.8125°C -4.9375% 3.3V v255 52.1075 / 5.14291 1183 ttn.v3 0.493km -116 -10 867.7MHz, SF9BW125, 4/5CR
2026-05-08 17:23:12 16.875°C 0.75% 3.3V v255 52.1075 / 5.14291 1182 ttn.v3 1.53km -101 -4.5 868.1MHz, SF9BW125, 4/5CR
2026-05-08 17:07:05 17.0625°C -1.3125% 3.3V v255 52.1075 / 5.14291 1181 ttn.v3 0.493km -115 -11 867.5MHz, SF9BW125, 4/5CR
2026-05-08 16:50:57 17.125°C -1.25% 3.3V v255 52.1075 / 5.14291 1180 ttn.v3 0.493km -104 -10.2 868.5MHz, SF9BW125, 4/5CR
1.53km -96 -11.25 868.5MHz, SF9BW125, 4/5CR
- -117 -13 868.5MHz, SF9BW125, 4/5CR
2026-05-08 16:34:50 17.3125°C -3.25% 3.3V v255 52.1075 / 5.14291 1179 ttn.v3 1.53km -104 0 867.3MHz, SF9BW125, 4/5CR
0.493km -115 -9 867.3MHz, SF9BW125, 4/5CR
2026-05-08 16:18:43 17.1875°C -1.625% 3.3V v255 52.1075 / 5.14291 1178 ttn.v3 1.53km -90 -10.25 868.3MHz, SF9BW125, 4/5CR
2026-05-08 16:02:36 16.875°C 0.25% 3.3V v255 52.1075 / 5.14291 1177 ttn.v3 1.53km -104 4.75 867.1MHz, SF9BW125, 4/5CR
- -120 -7 867.1MHz, SF9BW125, 4/5CR
0.493km -116 -9 867.1MHz, SF9BW125, 4/5CR
2026-05-08 15:46:28 17.125°C 6.375% 3.3V v255 52.1075 / 5.14291 1176 ttn.v3 1.53km -107 -2.25 868.1MHz, SF9BW125, 4/5CR
0.493km -103 -13 868.1MHz, SF9BW125, 4/5CR
2026-05-08 15:30:21 16.9375°C 4% 3.3V v255 52.1075 / 5.14291 1175 ttn.v3 1.53km -103 3.75 867.9MHz, SF9BW125, 4/5CR
0.493km -115 -12.2 867.9MHz, SF9BW125, 4/5CR
2026-05-08 15:14:14 16.9375°C 5.25% 3.3V v255 52.1075 / 5.14291 1174 ttn.v3 0.493km -105 -8.8 868.5MHz, SF9BW125, 4/5CR
1.53km -95 -11 868.5MHz, SF9BW125, 4/5CR
2026-05-08 14:58:07 17.0625°C 3.5625% 3.3V v255 52.1075 / 5.14291 1173 ttn.v3 0.493km -114 -10.8 867.7MHz, SF9BW125, 4/5CR
2026-05-08 14:42:00 17.125°C 4.625% 3.3V v255 52.1075 / 5.14291 1172 ttn.v3 0.493km -106 -10 868.3MHz, SF9BW125, 4/5CR
2026-05-08 14:25:52 17.25°C 3.25% 3.3V v255 52.1075 / 5.14291 1171 ttn.v3 0.493km -116 -10.5 867.5MHz, SF9BW125, 4/5CR
2026-05-08 14:09:45 17.25°C 1.5625% 3.3V v255 52.1075 / 5.14291 1170 ttn.v3 1.53km -92 -3.75 868.1MHz, SF9BW125, 4/5CR
0.493km -106 -10.2 868.1MHz, SF9BW125, 4/5CR
2026-05-08 13:53:38 17.1875°C 0.875% 3.3V v255 52.1075 / 5.14291 1169 ttn.v3 1.53km -105 -10.5 867.3MHz, SF9BW125, 4/5CR
0.493km -116 -11 867.3MHz, SF9BW125, 4/5CR
2026-05-08 13:37:31 17.125°C -0.75% 3.3V v255 52.1075 / 5.14291 1168 ttn.v3 1.53km -93 -9 868.5MHz, SF9BW125, 4/5CR
0.493km -106 -9.5 868.5MHz, SF9BW125, 4/5CR
2026-05-08 13:21:24 16.75°C -1.375% 3.3V v255 52.1075 / 5.14291 1167 ttn.v3 1.53km -105 6 867.1MHz, SF9BW125, 4/5CR
- -117 -3.25 867.1MHz, SF9BW125, 4/5CR
0.493km -116 -9.2 867.1MHz, SF9BW125, 4/5CR
2026-05-08 13:05:17 16.125°C -0.8125% 3.3V v255 52.1075 / 5.14291 1166 ttn.v3 0.493km -105 -10.8 868.3MHz, SF9BW125, 4/5CR
1.53km -95 -12.25 868.3MHz, SF9BW125, 4/5CR
2026-05-08 12:49:10 16.3125°C -3.1875% 3.31V v255 52.1075 / 5.14291 1165 ttn.v3 1.53km -99 4.5 867.9MHz, SF9BW125, 4/5CR
- -123 -10 867.9MHz, SF9BW125, 4/5CR
0.493km -116 -12 867.9MHz, SF9BW125, 4/5CR
2026-05-08 12:16:56 16.0625°C 118.438% 3.3V v255 52.1075 / 5.14291 1163 ttn.v3 1.53km -107 -3.75 867.7MHz, SF9BW125, 4/5CR
2026-05-08 12:00:49 15.875°C 118% 3.3V v255 52.1075 / 5.14291 1162 ttn.v3 1.53km -92 -8 868.5MHz, SF9BW125, 4/5CR
0.493km -106 -13.2 868.5MHz, SF9BW125, 4/5CR
2026-05-08 11:44:43 16.3125°C 114.375% 3.3V v255 52.1075 / 5.14291 1161 ttn.v3 0.493km -116 -11 867.5MHz, SF9BW125, 4/5CR
2026-05-08 11:28:36 16.4375°C 108.188% 3.3V v255 52.1075 / 5.14291 1160 ttn.v3 0.493km -104 -13.5 868.3MHz, SF9BW125, 4/5CR
2026-05-08 11:12:29 15.375°C 108.188% 3.31V v255 52.1075 / 5.14291 1159 ttn.v3 0.493km -116 -9.8 867.3MHz, SF9BW125, 4/5CR
2026-05-08 10:56:22 15.1875°C 108.562% 3.31V v255 52.1075 / 5.14291 1158 ttn.v3 1.53km -104 4 868.1MHz, SF9BW125, 4/5CR
0.493km -105 -12.2 868.1MHz, SF9BW125, 4/5CR
2026-05-08 10:40:16 14.5625°C 107.938% 3.31V v255 52.1075 / 5.14291 1157 ttn.v3 1.53km -96 4 867.1MHz, SF9BW125, 4/5CR
- -115 -3.25 867.1MHz, SF9BW125, 4/5CR
0.493km -116 -11.8 867.1MHz, SF9BW125, 4/5CR
2026-05-08 10:24:10 13.875°C 113.188% 3.31V v255 52.1075 / 5.14291 1156 ttn.v3 0.493km -105 -8.8 868.5MHz, SF9BW125, 4/5CR
2026-05-08 10:08:04 13.5°C 108.5% 3.31V v255 52.1075 / 5.14291 1155 ttn.v3 1.53km -102 1.5 867.9MHz, SF9BW125, 4/5CR
0.493km -114 -10.8 867.9MHz, SF9BW125, 4/5CR
2026-05-08 09:51:58 12.5°C 106.875% 3.31V v255 52.1075 / 5.14291 1154 ttn.v3 0.493km -104 -10.8 868.3MHz, SF9BW125, 4/5CR
2026-05-08 09:35:53 12.1875°C 103.562% 3.31V v255 52.1075 / 5.14291 1153 ttn.v3 0.493km -115 -10.2 867.7MHz, SF9BW125, 4/5CR
2026-05-08 09:20:35 11.625°C 104.5% 3.3V v255 52.1075 / 5.14291 1152 ttn.v3 1.53km -109 -4.75 868.1MHz, SF12BW125, 4/5CR
0.493km -104 -10.5 868.1MHz, SF12BW125, 4/5CR
2026-05-08 09:03:45 10.9375°C 106.562% 3.31V v255 52.1073 / 5.14288 1151 ttn.v3 0.515km -116 -10 867.5MHz, SF9BW125, 4/5CR
1.511km -88 -12.5 867.5MHz, SF9BW125, 4/5CR
- -112 -12.75 867.5MHz, SF9BW125, 4/5CR
2026-05-08 08:47:40 10.4375°C -5.1875% 3.31V v255 52.1073 / 5.14288 1150 ttn.v3 0.515km -105 -10.8 868.5MHz, SF9BW125, 4/5CR
1.511km -93 -12.5 868.5MHz, SF9BW125, 4/5CR
- -116 -13 868.5MHz, SF9BW125, 4/5CR
2026-05-08 07:59:25 9.75°C 55.875% 3.31V v255 52.1073 / 5.14288 1147 ttn.v3 1.511km -104 3 867.1MHz, SF9BW125, 4/5CR
0.515km -116 -10.5 867.1MHz, SF9BW125, 4/5CR
2026-05-08 07:43:20 9.5625°C 39.6875% 3.31V v255 52.1073 / 5.14288 1146 ttn.v3 0.515km -105 -10 868.1MHz, SF9BW125, 4/5CR
2026-05-08 07:27:15 9.375°C 35.4375% 3.31V v255 52.1073 / 5.14288 1145 ttn.v3 1.511km -104 5.5 867.9MHz, SF9BW125, 4/5CR
0.515km -115 -11 867.9MHz, SF9BW125, 4/5CR
2026-05-08 07:11:11 9.3125°C 30.8125% 3.31V v255 52.1073 / 5.14288 1144 ttn.v3 0.515km -104 -13 868.5MHz, SF9BW125, 4/5CR
2026-05-08 06:55:06 9.1875°C 30.3125% 3.31V v255 52.1073 / 5.14288 1143 ttn.v3 0.515km -115 -11 867.7MHz, SF9BW125, 4/5CR
2026-05-08 06:39:01 9.0625°C 35.375% 3.31V v255 52.1073 / 5.14288 1142 ttn.v3 0.515km -104 -11.8 868.3MHz, SF9BW125, 4/5CR
2026-05-08 06:22:57 9.125°C 41.375% 3.32V v255 52.1073 / 5.14288 1141 ttn.v3 0.515km -116 -12 867.5MHz, SF9BW125, 4/5CR
2026-05-08 06:06:52 9.1875°C 46.5% 3.31V v255 52.1073 / 5.14288 1140 ttn.v3 0.515km -105 -10.2 868.1MHz, SF9BW125, 4/5CR
2026-05-08 05:50:47 9.3125°C 50% 3.31V v255 52.1073 / 5.14288 1139 ttn.v3 1.511km -103 1.5 867.3MHz, SF9BW125, 4/5CR
0.515km -115 -9.8 867.3MHz, SF9BW125, 4/5CR
2026-05-08 05:34:42 9.4375°C 48.9375% 3.31V v255 52.1073 / 5.14288 1138 ttn.v3 0.515km -105 -9.2 868.5MHz, SF9BW125, 4/5CR
1.511km -92 -12 868.5MHz, SF9BW125, 4/5CR
2026-05-08 05:18:38 9.5°C 45.75% 3.31V v255 52.1073 / 5.14288 1137 ttn.v3 0.515km -116 -9.2 867.1MHz, SF9BW125, 4/5CR
2026-05-08 05:02:33 9.5625°C 41.625% 3.31V v255 52.1073 / 5.14288 1136 ttn.v3 0.515km -105 -12.8 868.3MHz, SF9BW125, 4/5CR
2026-05-08 04:46:28 9.625°C 32% 3.31V v255 52.1073 / 5.14288 1135 ttn.v3 1.511km -105 5.5 867.9MHz, SF9BW125, 4/5CR
0.515km -115 -11.5 867.9MHz, SF9BW125, 4/5CR
2026-05-08 04:30:23 9.6875°C 29% 3.31V v255 52.1073 / 5.14288 1134 ttn.v3 1.511km -101 -1.25 868.1MHz, SF9BW125, 4/5CR
0.515km -105 -10.2 868.1MHz, SF9BW125, 4/5CR
2026-05-08 04:14:18 9.8125°C 28.0625% 3.31V v255 52.1073 / 5.14288 1133 ttn.v3 1.511km -97 -2.75 867.7MHz, SF9BW125, 4/5CR
0.515km -115 -9.8 867.7MHz, SF9BW125, 4/5CR
2026-05-08 03:58:13 10°C 30.4375% 3.31V v255 52.1073 / 5.14288 1132 ttn.v3 1.511km -92 -8.5 868.5MHz, SF9BW125, 4/5CR
0.515km -105 -12.5 868.5MHz, SF9BW125, 4/5CR
2026-05-08 03:42:08 10.0625°C 32.9375% 3.31V v255 52.1073 / 5.14288 1131 ttn.v3 0.515km -115 -9.5 867.5MHz, SF9BW125, 4/5CR
1.511km -91 -12.75 867.5MHz, SF9BW125, 4/5CR
2026-05-08 03:26:03 10.25°C 38.0625% 3.31V v255 52.1073 / 5.14288 1130 ttn.v3 1.511km -95 -7.25 868.3MHz, SF9BW125, 4/5CR
0.515km -104 -12 868.3MHz, SF9BW125, 4/5CR
2026-05-08 03:09:58 10.375°C 40.9375% 3.31V v255 52.1073 / 5.14288 1129 ttn.v3 1.511km -98 3 867.3MHz, SF9BW125, 4/5CR
0.515km -115 -9.8 867.3MHz, SF9BW125, 4/5CR
2026-05-08 02:53:53 10.5°C 40.9375% 3.31V v255 52.1073 / 5.14288 1128 ttn.v3 1.511km -103 -1.5 868.1MHz, SF9BW125, 4/5CR
2026-05-08 02:37:48 10.625°C 39.125% 3.31V v255 52.1073 / 5.14288 1127 ttn.v3 1.511km -101 6.5 867.1MHz, SF9BW125, 4/5CR
- -118 -2.75 867.1MHz, SF9BW125, 4/5CR
0.515km -116 -10.5 867.1MHz, SF9BW125, 4/5CR
2026-05-08 02:21:43 10.75°C 36.875% 3.31V v255 52.1073 / 5.14288 1126 ttn.v3 0.515km -105 -10.8 868.5MHz, SF9BW125, 4/5CR
1.511km -92 -12.25 868.5MHz, SF9BW125, 4/5CR
2026-05-08 02:05:37 10.875°C 38.25% 3.31V v255 52.1073 / 5.14288 1125 ttn.v3 1.511km -101 4.25 867.9MHz, SF9BW125, 4/5CR
0.515km -115 -12.2 867.9MHz, SF9BW125, 4/5CR
2026-05-08 01:49:32 10.875°C 32.9375% 3.31V v255 52.1073 / 5.14288 1124 ttn.v3 0.515km -105 -8.5 868.3MHz, SF9BW125, 4/5CR
1.511km -95 -8.75 868.3MHz, SF9BW125, 4/5CR
2026-05-08 01:33:27 11.0625°C 49.5% 3.31V v255 52.1073 / 5.14288 1123 ttn.v3 1.511km -104 -1.25 867.7MHz, SF9BW125, 4/5CR
0.515km -115 -9 867.7MHz, SF9BW125, 4/5CR
2026-05-08 01:17:22 11.1875°C 87.1875% 3.31V v255 52.1073 / 5.14288 1122 ttn.v3 1.511km -105 0.75 868.1MHz, SF9BW125, 4/5CR
0.515km -105 -11.2 868.1MHz, SF9BW125, 4/5CR
2026-05-08 01:01:16 11.25°C 104% 3.31V v255 52.1073 / 5.14288 1121 ttn.v3 0.515km -115 -10.5 867.5MHz, SF9BW125, 4/5CR
2026-05-08 00:45:11 11.375°C 103.938% 3.31V v255 52.1073 / 5.14288 1120 ttn.v3 1.511km -95 -8 868.5MHz, SF9BW125, 4/5CR
0.515km -105 -9.5 868.5MHz, SF9BW125, 4/5CR
2026-05-08 00:29:06 11.5625°C 111.688% 3.31V v255 52.1073 / 5.14288 1119 ttn.v3 1.511km -103 4 867.3MHz, SF9BW125, 4/5CR
0.515km -115 -10.2 867.3MHz, SF9BW125, 4/5CR
2026-05-08 00:13:00 11.6875°C 2.4375% 3.31V v255 52.1073 / 5.14288 1118 ttn.v3 1.511km -91 -7.25 868.3MHz, SF9BW125, 4/5CR
0.515km -105 -10.2 868.3MHz, SF9BW125, 4/5CR
2026-05-07 23:56:55 11.875°C 15.5% 3.31V v255 52.1073 / 5.14288 1117 ttn.v3 1.511km -103 2.5 867.1MHz, SF9BW125, 4/5CR
0.515km -116 -8.5 867.1MHz, SF9BW125, 4/5CR
2026-05-07 23:40:49 12.125°C 21.875% 3.31V v255 52.1073 / 5.14288 1116 ttn.v3 1.511km -107 -4 868.1MHz, SF9BW125, 4/5CR
0.515km -105 -10 868.1MHz, SF9BW125, 4/5CR
2026-05-07 23:24:44 12.25°C 20.875% 3.31V v255 52.1073 / 5.14288 1115 ttn.v3 1.511km -97 -0.5 867.9MHz, SF9BW125, 4/5CR
0.515km -115 -11.2 867.9MHz, SF9BW125, 4/5CR
2026-05-07 23:08:38 12.25°C 20.5625% 3.31V v255 52.1073 / 5.14288 1114 ttn.v3 1.511km -93 -6.75 868.5MHz, SF9BW125, 4/5CR
0.515km -105 -9.8 868.5MHz, SF9BW125, 4/5CR
- -118 -13.25 868.5MHz, SF9BW125, 4/5CR
2026-05-07 22:52:32 12.3125°C 18.5% 3.31V v255 52.1073 / 5.14288 1113 ttn.v3 1.511km -103 2.25 867.7MHz, SF9BW125, 4/5CR
0.515km -116 -9 867.7MHz, SF9BW125, 4/5CR
2026-05-07 22:36:27 12.4375°C 13.75% 3.31V v255 52.1073 / 5.14288 1112 ttn.v3 1.511km -95 -8.75 868.3MHz, SF9BW125, 4/5CR
0.515km -105 -10.2 868.3MHz, SF9BW125, 4/5CR
2026-05-07 22:20:21 12.5625°C 8.875% 3.31V v255 52.1073 / 5.14288 1111 ttn.v3 0.515km -115 -9 867.5MHz, SF9BW125, 4/5CR
2026-05-07 22:04:15 12.6875°C 5.6875% 3.31V v255 52.1073 / 5.14288 1110 ttn.v3 1.511km -101 4 868.1MHz, SF9BW125, 4/5CR
0.515km -105 -9.8 868.1MHz, SF9BW125, 4/5CR
2026-05-07 21:48:10 12.9375°C 0.875% 3.31V v255 52.1073 / 5.14288 1109 ttn.v3 1.511km -101 5.25 867.3MHz, SF9BW125, 4/5CR
0.515km -115 -9 867.3MHz, SF9BW125, 4/5CR
2026-05-07 21:32:04 13.125°C -1.625% 3.31V v255 52.1073 / 5.14288 1108 ttn.v3 1.511km -93 -7.5 868.5MHz, SF9BW125, 4/5CR
0.515km -104 -11.8 868.5MHz, SF9BW125, 4/5CR
- -117 -15 868.5MHz, SF9BW125, 4/5CR
2026-05-07 21:15:58 13.3125°C -5.8125% 3.31V v255 52.1073 / 5.14288 1107 ttn.v3 1.511km -102 4 867.1MHz, SF9BW125, 4/5CR
0.515km -116 -9.2 867.1MHz, SF9BW125, 4/5CR
2026-05-07 20:43:46 13.6875°C 112.625% 3.31V v255 52.1073 / 5.14288 1105 ttn.v3 1.511km -99 7 867.9MHz, SF9BW125, 4/5CR
0.515km -115 -10.5 867.9MHz, SF9BW125, 4/5CR
2026-05-07 20:27:39 13.875°C 112% 3.31V v255 52.1073 / 5.14288 1104 ttn.v3 0.515km -104 -11.8 868.1MHz, SF9BW125, 4/5CR
2026-05-07 20:11:33 14.0625°C 111.125% 3.31V v255 52.1073 / 5.14288 1103 ttn.v3 1.511km -98 0.75 867.7MHz, SF9BW125, 4/5CR
0.515km -115 -9 867.7MHz, SF9BW125, 4/5CR
2026-05-07 19:55:27 14.1875°C 109.5% 3.31V v255 52.1073 / 5.14288 1102 ttn.v3 1.511km -92 -6.25 868.5MHz, SF9BW125, 4/5CR
0.515km -105 -9.5 868.5MHz, SF9BW125, 4/5CR
- -116 -13 868.5MHz, SF9BW125, 4/5CR
2026-05-07 19:39:21 14.3125°C 108.375% 3.31V v255 52.1073 / 5.14288 1101 ttn.v3 0.515km -116 -10 867.5MHz, SF9BW125, 4/5CR
2026-05-07 19:23:15 14.4375°C 107.125% 3.31V v255 52.1073 / 5.14288 1100 ttn.v3 0.515km -105 -9.2 868.3MHz, SF9BW125, 4/5CR
2026-05-07 19:07:08 14.5625°C 106.812% 3.31V v255 52.1073 / 5.14288 1099 ttn.v3 1.511km -103 3 867.3MHz, SF9BW125, 4/5CR
- -117 -4 867.3MHz, SF9BW125, 4/5CR
2026-05-07 18:51:02 14.6875°C 105.188% 3.31V v255 52.1073 / 5.14288 1098 ttn.v3 1.511km -104 2.25 868.1MHz, SF9BW125, 4/5CR
0.515km -104 -10.5 868.1MHz, SF9BW125, 4/5CR
2026-05-07 18:34:56 14.8125°C 104.812% 3.31V v255 52.1073 / 5.14288 1097 ttn.v3 0.515km -116 -10.2 867.1MHz, SF9BW125, 4/5CR
2026-05-07 18:18:49 15.0625°C 104.562% 3.31V v255 52.1073 / 5.14288 1096 ttn.v3 1.511km -93 -7 868.5MHz, SF9BW125, 4/5CR
0.515km -105 -8.2 868.5MHz, SF9BW125, 4/5CR
2026-05-07 18:02:43 15.5°C 104.688% 3.31V v255 52.1073 / 5.14288 1095 ttn.v3 1.511km -103 3.75 867.9MHz, SF9BW125, 4/5CR
0.515km -115 -10 867.9MHz, SF9BW125, 4/5CR
2026-05-07 17:46:36 15.9375°C 104.25% 3.31V v255 52.1073 / 5.14288 1094 ttn.v3 0.515km -105 -8.5 868.3MHz, SF9BW125, 4/5CR
2026-05-07 17:30:29 16.4375°C 104.312% 3.3V v255 52.1073 / 5.14288 1093 ttn.v3 1.511km -103 1.25 867.7MHz, SF9BW125, 4/5CR
- -117 -4.25 867.7MHz, SF9BW125, 4/5CR
0.515km -115 -10.2 867.7MHz, SF9BW125, 4/5CR
2026-05-07 17:14:22 17.125°C 104.812% 3.3V v255 52.1073 / 5.14288 1092 ttn.v3 1.511km -101 2.75 868.1MHz, SF9BW125, 4/5CR
0.515km -105 -10.2 868.1MHz, SF9BW125, 4/5CR
2026-05-07 16:42:09 15.625°C 105.188% 3.31V v255 52.1073 / 5.14288 1090 ttn.v3 0.515km -105 -9 868.5MHz, SF9BW125, 4/5CR
1.511km -90 -9.25 868.5MHz, SF9BW125, 4/5CR
2026-05-07 16:26:02 15.3125°C 105.375% 3.31V v255 52.1073 / 5.14288 1089 ttn.v3 0.515km -115 -10.5 867.3MHz, SF9BW125, 4/5CR
2026-05-07 16:09:56 15.25°C 105.938% 3.31V v255 52.1073 / 5.14288 1088 ttn.v3 0.515km -105 -9.5 868.3MHz, SF9BW125, 4/5CR
2026-05-07 15:53:49 15.6875°C 104.688% 3.31V v255 52.1073 / 5.14288 1087 ttn.v3 0.515km -116 -11 867.1MHz, SF9BW125, 4/5CR
2026-05-07 15:37:42 16.25°C 104.812% 3.31V v255 52.1073 / 5.14288 1086 ttn.v3 1.511km -105 1.5 868.1MHz, SF9BW125, 4/5CR
0.515km -105 -9 868.1MHz, SF9BW125, 4/5CR
2026-05-07 15:21:35 16.125°C 104.688% 3.3V v255 52.1073 / 5.14288 1085 ttn.v3 1.511km -99 4 867.9MHz, SF9BW125, 4/5CR
2026-05-07 15:05:29 15.8125°C 105.938% 3.31V v255 52.1073 / 5.14288 1084 ttn.v3 1.511km -93 -8 868.5MHz, SF9BW125, 4/5CR
0.515km -105 -10.5 868.5MHz, SF9BW125, 4/5CR
2026-05-07 14:49:22 16.125°C 106.438% 3.31V v255 52.1073 / 5.14288 1083 ttn.v3 1.511km -105 0 867.7MHz, SF9BW125, 4/5CR
- -117 -4 867.7MHz, SF9BW125, 4/5CR
0.515km -116 -9.5 867.7MHz, SF9BW125, 4/5CR
2026-05-07 14:33:15 18.125°C 105.188% 3.3V v255 52.1073 / 5.14288 1082 ttn.v3 1.511km -97 -7.75 868.3MHz, SF9BW125, 4/5CR
0.515km -104 -11 868.3MHz, SF9BW125, 4/5CR
2026-05-07 14:17:07 17.3125°C 114.375% 3.3V v255 52.1073 / 5.14288 1081 ttn.v3 0.515km -113 -12.8 867.5MHz, SF9BW125, 4/5CR
2026-05-07 14:01:00 16.3125°C 72.375% 3.31V v255 52.1073 / 5.14288 1080 ttn.v3 1.511km -101 3.25 868.1MHz, SF9BW125, 4/5CR
0.515km -105 -10.8 868.1MHz, SF9BW125, 4/5CR
2026-05-07 13:44:54 15.25°C 59.375% 3.31V v255 52.1073 / 5.14288 1079 ttn.v3 1.511km -103 -5.5 867.3MHz, SF9BW125, 4/5CR
0.515km -114 -10 867.3MHz, SF9BW125, 4/5CR
2026-05-07 13:28:47 14.9375°C 43.25% 3.31V v255 52.1073 / 5.14288 1078 ttn.v3 0.515km -104 -11 868.5MHz, SF9BW125, 4/5CR
2026-05-07 13:12:41 14.625°C 37.5625% 3.31V v255 52.1073 / 5.14288 1077 ttn.v3 1.511km -99 -0.25 867.1MHz, SF9BW125, 4/5CR
0.515km -115 -10.8 867.1MHz, SF9BW125, 4/5CR
2026-05-07 12:56:35 14.3125°C 36.375% 3.31V v255 52.1073 / 5.14288 1076 ttn.v3 0.515km -103 -12 868.3MHz, SF9BW125, 4/5CR
1.511km -89 -12.25 868.3MHz, SF9BW125, 4/5CR
2026-05-07 12:40:29 14°C 41.375% 3.31V v255 52.1073 / 5.14288 1075 ttn.v3 1.511km -103 6.25 867.9MHz, SF9BW125, 4/5CR
- -119 -7 867.9MHz, SF9BW125, 4/5CR
0.515km -113 -12.8 867.9MHz, SF9BW125, 4/5CR
2026-05-07 12:24:22 13.9375°C 30.0625% 3.31V v255 52.1073 / 5.14288 1074 ttn.v3 1.511km -98 -6.5 868.1MHz, SF9BW125, 4/5CR
0.515km -103 -13 868.1MHz, SF9BW125, 4/5CR
2026-05-07 12:08:16 13.75°C 31.75% 3.31V v255 52.1073 / 5.14288 1073 ttn.v3 1.511km -104 1.25 867.7MHz, SF9BW125, 4/5CR
- -115 -2 867.7MHz, SF9BW125, 4/5CR
0.515km -113 -10 867.7MHz, SF9BW125, 4/5CR
2026-05-07 11:52:10 14.125°C 34.8125% 3.31V v255 52.1073 / 5.14288 1072 ttn.v3 1.511km -92 -6.5 868.5MHz, SF9BW125, 4/5CR
0.515km -104 -12.5 868.5MHz, SF9BW125, 4/5CR
- -119 -13.25 868.5MHz, SF9BW125, 4/5CR
2026-05-07 11:36:04 14.1875°C 21.75% 3.31V v255 52.1073 / 5.14288 1071 ttn.v3 0.515km -113 -12.5 867.5MHz, SF9BW125, 4/5CR
2026-05-07 11:19:58 13.75°C 19.4375% 3.31V v255 52.1073 / 5.14288 1070 ttn.v3 1.511km -89 -9.75 868.3MHz, SF9BW125, 4/5CR
2026-05-07 11:03:52 13.3125°C 10.4375% 3.31V v255 52.1073 / 5.14288 1069 ttn.v3 1.511km -98 4 867.3MHz, SF9BW125, 4/5CR
0.515km -115 -11 867.3MHz, SF9BW125, 4/5CR
2026-05-07 10:47:46 12.9375°C 8.25% 3.31V v255 52.1073 / 5.14288 1068 ttn.v3 1.511km -93 -3.75 868.1MHz, SF9BW125, 4/5CR
0.515km -103 -14.8 868.1MHz, SF9BW125, 4/5CR
2026-05-07 10:31:40 12.8125°C 7.5% 3.31V v255 52.1073 / 5.14288 1067 ttn.v3 1.511km -104 4.75 867.1MHz, SF9BW125, 4/5CR
- -112 -0.75 867.1MHz, SF9BW125, 4/5CR
2026-05-07 10:15:35 12.375°C 5.125% 3.31V v255 52.1073 / 5.14288 1066 ttn.v3 1.511km -91 -8.25 868.5MHz, SF9BW125, 4/5CR
0.515km -103 -10.5 868.5MHz, SF9BW125, 4/5CR
- -118 -13.25 868.5MHz, SF9BW125, 4/5CR
2026-05-07 09:59:29 11.75°C -4.5625% 3.31V v255 52.1073 / 5.14288 1065 ttn.v3 1.511km -109 -2 867.9MHz, SF9BW125, 4/5CR
0.515km -114 -10.5 867.9MHz, SF9BW125, 4/5CR
2026-05-07 09:43:24 11.625°C 110.438% 3.31V v255 52.1073 / 5.14288 1064 ttn.v3 1.511km -90 -11.5 868.3MHz, SF9BW125, 4/5CR
0.515km -103 -13.2 868.3MHz, SF9BW125, 4/5CR
2026-05-07 09:27:19 11.125°C 113.375% 3.31V v255 52.1073 / 5.14288 1063 ttn.v3 1.511km -99 -4 867.7MHz, SF9BW125, 4/5CR
0.515km -114 -11.8 867.7MHz, SF9BW125, 4/5CR
2026-05-07 09:11:13 10.875°C 102.75% 3.31V v255 52.1073 / 5.14288 1062 ttn.v3 1.511km -101 0 868.1MHz, SF9BW125, 4/5CR
0.515km -103 -12.2 868.1MHz, SF9BW125, 4/5CR
2026-05-07 08:55:08 10.5°C 95.875% 3.31V v255 52.1073 / 5.14288 1061 ttn.v3 0.515km -114 -11.8 867.5MHz, SF9BW125, 4/5CR
2026-05-07 08:39:03 10.375°C 88.6875% 3.31V v255 52.1073 / 5.14288 1060 ttn.v3 1.511km -95 -8.75 868.5MHz, SF9BW125, 4/5CR
0.515km -103 -11.2 868.5MHz, SF9BW125, 4/5CR
2026-05-07 08:22:58 10.75°C 90.1875% 3.31V v255 52.1073 / 5.14288 1059 ttn.v3 1.511km -89 -3.25 867.3MHz, SF9BW125, 4/5CR
0.515km -114 -9.8 867.3MHz, SF9BW125, 4/5CR
2026-05-07 07:50:48 8.625°C 47.8125% 3.32V v255 52.1073 / 5.14288 1057 ttn.v3 1.511km -101 -1 867.1MHz, SF9BW125, 4/5CR
0.515km -116 -9.8 867.1MHz, SF9BW125, 4/5CR
2026-05-07 07:36:11 7.6875°C 50.75% 3.31V v255 52.1073 / 5.14288 1056 ttn.v3 1.511km -104 -3.75 868.1MHz, SF12BW125, 4/5CR
- -121 -14 868.1MHz, SF12BW125, 4/5CR
0.515km -103 -14 868.1MHz, SF12BW125, 4/5CR
2026-05-07 07:18:45 7.1875°C 53.125% 3.32V v255 52.1075 / 5.14288 1055 ttn.v3 1.531km -103 6.25 867.9MHz, SF9BW125, 4/5CR
2026-05-07 07:02:41 7°C 54.1875% 3.32V v255 52.1075 / 5.14288 1054 ttn.v3 1.531km -93 -8.5 868.5MHz, SF9BW125, 4/5CR
0.493km -104 -13.8 868.5MHz, SF9BW125, 4/5CR
2026-05-07 06:46:37 6.75°C 55.6875% 3.32V v255 52.1075 / 5.14288 1053 ttn.v3 1.531km -105 -1.75 867.7MHz, SF9BW125, 4/5CR
2026-05-07 06:14:30 6.25°C 58.75% 3.32V v255 52.1075 / 5.14288 1051 ttn.v3 0.493km -114 -12.2 867.5MHz, SF9BW125, 4/5CR
2026-05-07 05:58:26 6°C 60.6875% 3.32V v255 52.1075 / 5.14288 1050 ttn.v3 1.531km -109 -3 868.1MHz, SF9BW125, 4/5CR
0.493km -102 -16 868.1MHz, SF9BW125, 4/5CR
2026-05-07 05:42:22 5.875°C 62.625% 3.32V v255 52.1075 / 5.14288 1049 ttn.v3 1.531km -98 1.25 867.3MHz, SF9BW125, 4/5CR
0.493km -115 -10.5 867.3MHz, SF9BW125, 4/5CR
2026-05-07 05:26:18 5.875°C 64.875% 3.32V v255 52.1075 / 5.14288 1048 ttn.v3 1.531km -93 -9.75 868.5MHz, SF9BW125, 4/5CR
0.493km -104 -13.2 868.5MHz, SF9BW125, 4/5CR
2026-05-07 05:10:14 5.75°C 67.375% 3.32V v255 52.1075 / 5.14288 1047 ttn.v3 1.531km -103 -0.25 867.1MHz, SF9BW125, 4/5CR
- -117 -10.5 867.1MHz, SF9BW125, 4/5CR
0.493km -116 -11 867.1MHz, SF9BW125, 4/5CR
2026-05-07 04:54:10 5.6875°C 74% 3.32V v255 52.1075 / 5.14288 1046 ttn.v3 1.531km -85 -7.25 868.3MHz, SF9BW125, 4/5CR
0.493km -103 -15.2 868.3MHz, SF9BW125, 4/5CR
2026-05-07 04:38:06 5.8125°C 85.9375% 3.32V v255 52.1075 / 5.14288 1045 ttn.v3 1.531km -105 3.75 867.9MHz, SF9BW125, 4/5CR
0.493km -114 -13.2 867.9MHz, SF9BW125, 4/5CR
2026-05-07 04:22:03 6°C 92.25% 3.32V v255 52.1075 / 5.14288 1044 ttn.v3 1.531km -101 -1.5 868.1MHz, SF9BW125, 4/5CR
0.493km -102 -15.8 868.1MHz, SF9BW125, 4/5CR
2026-05-07 04:05:59 6.4375°C 94.4375% 3.32V v255 52.1075 / 5.14288 1043 ttn.v3 1.531km -101 -1 867.7MHz, SF9BW125, 4/5CR
0.493km -114 -13 867.7MHz, SF9BW125, 4/5CR

Message count: 200
Node count: 1

Messages per node

Number of messages in list aboveNodes
200

Statistics per gateway

GatewayNumber of messagesNumber of nodesNodes
1901 (0.493km)
1461 (1.531km)
271

Filter by dataset